ウラジオストク の空港の天気 - METARとTAF

ウラジオストク空港 ( UHWW / VVO ) - ロシア ウラジオストク
飛行場実況気象(Metar)
観測時間02/26 13:00 VLAT (02/26 03:00 UTC)
風向・風速北 5m/s
視程10km以上
天気現象
なし
気温-5℃
湿度19%
気圧1029hPa
METARUHWW 260300Z 01005MPS 9999 NSC M05/M25 Q1029 R07R/0///70 NOSIG RMK QFE771
過去の天気等 Google飛行場航空写真 Wunderground天気予報

過去48時間のMETAR

飛行場予報(TAF)
発表時間: 2/26 12:00 VLAT (2/26 02:00 UTC)
予報対象時間: 26日13時 VLAT ~ 27日13時 VLAT
風向・風速北 3m/s
視程10km以上
なし
26日13時 VLAT ~ 26日18時 VLAT に一時的に
風向・風速北 10m/s
26日18時 VLAT ~ 26日20時 VLAT に徐々に
風向・風速南南東 3m/s
全天の8割程度の雲 雲底高度 760m
26日23時 VLAT ~ 27日1時 VLAT に徐々に
視程3,100m
天気現象弱いしゅう雪 もや
全天の4割程度の雲 雲底高度 340m
全天の8割程度の積乱雲 雲底高度 610m
TAF UHWW 260200Z 2603/2703 36003MPS 9999 NSC
TEMPO 2603/2608 36010MPS
BECMG 2608/2610 16003MPS BKN025
BECMG 2613/2615 3100 -SHSN BR SCT011 BKN020CB